Time;durP1;ratioP1;P1;durP2;ratioP2;P2;SDS_P1;SDS_P2;PMS_P1;PMS_P2;Temp;Humidity;BMP_temperature;BMP_pressure;BME280_temperature;BME280_humidity;BME280_pressure;Samples;Min_cycle;Max_cycle;Signal;HPM_P1;HPM_P2
2022/11/10 00:00:49;;;;;;;58.27;32.60;;;9.50;99.90;;;9.57;67.49;95613.84;5003687;28;21005;-57
2022/11/10 00:03:16;;;;;;;52.07;30.53;;;9.50;99.90;;;9.52;67.71;95617.63;5005879;28;20461;-55
2022/11/10 00:05:44;;;;;;;62.93;30.80;;;9.50;99.90;;;9.49;67.78;95612.63;5002185;28;20474;-56
2022/11/10 00:08:12;;;;;;;67.23;32.80;;;9.50;99.90;;;9.48;67.58;95617.97;4998254;28;20454;-55
2022/11/10 00:13:23;;;;;;;56.83;30.73;;;9.40;99.90;;;9.44;67.88;95619.19;5005658;28;20461;-56
2022/11/10 00:18:36;;;;;;;69.13;31.63;;;9.40;99.90;;;9.40;67.58;95617.72;5000931;28;20494;-56
2022/11/10 00:21:06;;;;;;;54.43;29.77;;;9.40;99.90;;;9.37;68.04;95610.06;5005838;28;20548;-57
2022/11/10 00:23:33;;;;;;;57.47;31.70;;;9.30;99.90;;;9.36;68.07;95616.25;5005728;28;20457;-57
2022/11/10 00:26:00;;;;;;;75.33;30.47;;;9.30;99.90;;;9.33;67.65;95612.94;5005646;28;20453;-56
2022/11/10 00:28:30;;;;;;;51.37;29.67;;;9.30;99.90;;;9.29;67.80;95606.22;5005378;28;20580;-54
2022/11/10 00:30:57;;;;;;;51.97;29.70;;;9.30;99.90;;;9.25;67.99;95607.41;5005956;28;20540;-56
2022/11/10 00:33:25;;;;;;;54.50;28.00;;;9.30;99.90;;;9.22;67.91;95610.28;5004833;28;20957;-57
2022/11/10 00:35:52;;;;;;;50.30;30.83;;;9.20;99.90;;;9.21;68.04;95607.75;5006064;28;20488;-55
2022/11/10 00:38:19;;;;;;;55.33;30.03;;;9.20;99.90;;;9.19;67.94;95615.75;5002674;28;20509;-55
2022/11/10 00:40:47;;;;;;;66.23;29.37;;;9.20;99.90;;;9.16;68.19;95610.72;5005494;28;20478;-56
2022/11/10 00:43:15;;;;;;;59.07;28.33;;;9.20;99.90;;;9.14;68.05;95602.97;5001336;28;20457;-55
2022/11/10 00:45:44;;;;;;;50.17;29.00;;;9.10;99.90;;;9.12;68.08;95599.63;5001160;28;20985;-57
2022/11/10 00:48:12;;;;;;;54.83;29.27;;;9.10;99.90;;;9.09;68.04;95599.84;5001477;28;21030;-57
2022/11/10 00:50:39;;;;;;;48.93;27.40;;;9.10;99.90;;;9.07;68.22;95599.09;5001513;28;20469;-57
2022/11/10 00:53:06;;;;;;;52.73;29.60;;;9.10;99.90;;;9.05;68.26;95595.75;4998135;28;20521;-56
2022/11/10 00:55:33;;;;;;;56.83;29.27;;;9.00;99.90;;;9.04;67.88;95596.69;5005134;28;20472;-57
2022/11/10 00:58:01;;;;;;;57.87;28.87;;;9.00;99.90;;;9.02;68.21;95593.38;4997828;28;20506;-57
2022/11/10 01:00:28;;;;;;;50.27;29.67;;;9.00;99.90;;;9.01;68.12;95596.09;5005737;28;20470;-55
2022/11/10 01:02:57;;;;;;;50.70;29.23;;;9.00;99.90;;;8.97;67.94;95588.44;5001906;28;20780;-57
2022/11/10 01:05:24;;;;;;;51.30;28.83;;;9.00;99.90;;;8.95;68.07;95585.13;5005254;28;20594;-57
2022/11/10 01:07:51;;;;;;;53.40;26.90;;;8.90;99.90;;;8.95;67.79;95594.75;4997582;28;20989;-56
2022/11/10 01:10:19;;;;;;;49.53;28.63;;;8.90;99.90;;;8.92;68.22;95585.34;5005823;28;20946;-55
2022/11/10 01:12:46;;;;;;;59.37;29.93;;;8.90;99.90;;;8.90;67.85;95592.47;5004985;28;21029;-56
2022/11/10 01:15:13;;;;;;;50.27;28.60;;;8.90;99.90;;;8.88;67.95;95586.50;5003161;28;20482;-56
2022/11/10 01:17:40;;;;;;;53.20;26.93;;;8.90;99.90;;;8.87;68.01;95592.69;5004702;28;20501;-54
2022/11/10 01:20:11;;;;;;;49.73;28.00;;;8.90;99.90;;;8.86;67.77;95596.28;5002005;28;20469;-56
2022/11/10 01:22:39;;;;;;;51.17;28.20;;;8.80;99.90;;;8.84;67.90;95585.03;5006767;28;20442;-57
2022/11/10 01:25:07;;;;;;;47.87;27.60;;;8.80;99.90;;;8.83;68.45;95590.41;5005061;28;20496;-56
2022/11/10 01:27:34;;;;;;;57.70;31.30;;;8.80;99.90;;;8.80;68.25;95583.59;5001643;28;20523;-55
2022/11/10 01:30:02;;;;;;;45.30;28.07;;;8.80;99.90;;;8.79;68.25;95587.16;5001140;28;20474;-56
2022/11/10 01:32:29;;;;;;;65.93;29.80;;;8.80;99.90;;;8.77;68.38;95579.41;5002266;28;20565;-57
2022/11/10 01:34:57;;;;;;;46.30;28.67;;;8.80;99.90;;;8.76;68.11;95577.72;5002934;28;20473;-56
2022/11/10 01:37:26;;;;;;;52.97;27.83;;;8.70;99.90;;;8.76;68.15;95579.53;5006860;28;21013;-55
2022/11/10 01:39:53;;;;;;;47.80;27.77;;;8.70;99.90;;;8.74;68.49;95582.25;5008224;28;20898;-54
2022/11/10 01:42:25;;;;;;;47.60;26.60;;;8.70;99.90;;;8.73;67.99;95579.75;5008002;28;20960;-56
2022/11/10 01:45:52;;;;;;;50.43;27.90;;;8.70;99.90;;;8.71;68.38;95579.03;5006812;28;20557;-57
2022/11/10 01:48:26;;;;;;;54.70;27.77;;;8.70;99.90;;;8.68;68.34;95577.44;4993052;28;20935;-56
2022/11/10 01:50:53;;;;;;;50.40;27.87;;;8.70;99.90;;;8.68;68.06;95581.88;5008134;28;20474;-57
2022/11/10 01:53:26;;;;;;;54.23;29.67;;;8.70;99.90;;;8.65;68.22;95580.28;5000794;28;20849;-56
2022/11/10 01:55:53;;;;;;;52.27;27.57;;;8.70;99.90;;;8.64;68.47;95580.41;5003081;28;20504;-55
2022/11/10 01:58:24;;;;;;;58.83;30.53;;;8.70;99.90;;;8.64;68.55;95577.78;5003572;28;20501;-57
2022/11/10 02:00:51;;;;;;;52.97;27.80;;;8.60;99.90;;;8.63;68.65;95578.72;5001408;28;20474;-57
2022/11/10 02:03:23;;;;;;;55.97;27.90;;;8.60;99.90;;;8.61;68.35;95584.94;5001536;28;20454;-56
2022/11/10 02:05:50;;;;;;;51.53;29.40;;;8.60;99.90;;;8.60;68.64;95588.50;5003851;28;20907;-58
2022/11/10 02:08:18;;;;;;;58.13;29.10;;;8.60;99.90;;;8.59;68.76;95588.59;4996561;28;20872;-57
2022/11/10 02:10:46;;;;;;;51.33;29.17;;;8.60;99.90;;;8.58;68.50;95587.78;5002791;28;20551;-56
2022/11/10 02:13:13;;;;;;;54.70;26.73;;;8.60;99.90;;;8.58;68.15;95589.53;5003757;28;20450;-58
2022/11/10 02:15:41;;;;;;;51.87;29.67;;;8.60;99.90;;;8.56;68.31;95592.25;5002880;28;20482;-56
2022/11/10 02:18:08;;;;;;;53.00;29.77;;;8.60;99.90;;;8.54;68.42;95594.16;5006143;28;20497;-57
2022/11/10 02:20:35;;;;;;;51.97;29.20;;;8.50;99.90;;;8.52;68.56;95588.22;5004613;28;20989;-55
2022/11/10 02:23:14;;;;;;;44.23;30.00;;;8.50;99.90;;;8.51;68.47;95596.19;5007932;28;20456;-57
2022/11/10 02:25:41;;;;;;;52.60;30.97;;;8.50;99.90;;;8.48;68.78;95599.84;5002418;28;20554;-55
2022/11/10 02:28:09;;;;;;;52.20;29.93;;;8.50;99.90;;;8.47;68.33;95600.78;5007847;28;20565;-54
2022/11/10 02:30:36;;;;;;;53.33;28.20;;;8.50;99.90;;;8.44;68.42;95603.63;5007330;28;20591;-56
2022/11/10 02:33:03;;;;;;;57.20;31.97;;;8.50;99.90;;;8.43;68.57;95601.94;5007921;28;20896;-55
2022/11/10 02:35:31;;;;;;;51.87;31.03;;;8.50;99.90;;;8.41;68.29;95609.91;5007548;28;20470;-57
2022/11/10 02:37:58;;;;;;;54.83;30.37;;;8.40;99.90;;;8.40;68.54;95604.78;5007180;28;20490;-56
2022/11/10 02:40:27;;;;;;;54.43;30.80;;;8.40;99.90;;;8.37;68.62;95611.06;5007066;28;20897;-56
2022/11/10 02:42:54;;;;;;;48.90;30.47;;;8.40;99.90;;;8.37;68.37;95607.63;5003220;28;20461;-57
2022/11/10 02:45:21;;;;;;;52.70;31.03;;;8.40;99.90;;;8.36;68.96;95605.94;5003186;28;20480;-55
2022/11/10 02:47:49;;;;;;;50.70;31.00;;;8.40;99.90;;;8.35;69.03;95606.88;5002663;28;20978;-56
2022/11/10 02:50:17;;;;;;;59.70;32.30;;;8.40;99.90;;;8.35;69.15;95610.34;5004161;28;20474;-55
2022/11/10 02:52:44;;;;;;;57.73;30.23;;;8.40;99.90;;;8.36;68.88;95613.78;5000413;28;20459;-56
2022/11/10 02:55:11;;;;;;;56.17;31.50;;;8.40;99.90;;;8.35;69.15;95612.09;5006334;28;20469;-56
2022/11/10 02:57:40;;;;;;;71.20;32.93;;;8.40;99.90;;;8.34;69.27;95613.06;4999980;28;20454;-57
2022/11/10 03:00:09;;;;;;;47.10;29.03;;;8.40;99.90;;;8.32;68.79;95615.81;5001095;28;20473;-56
2022/11/10 03:02:36;;;;;;;60.33;30.50;;;8.30;99.90;;;8.30;69.10;95611.59;4999918;28;20457;-57
2022/11/10 03:05:04;;;;;;;53.80;30.37;;;8.30;99.90;;;8.29;69.62;95610.78;4999546;28;20474;-56
2022/11/10 03:07:31;;;;;;;45.73;29.60;;;8.30;99.90;;;8.28;69.37;95609.09;4995561;28;21022;-56
2022/11/10 03:09:58;;;;;;;59.53;32.37;;;8.30;99.90;;;8.26;69.29;95611.81;5003058;28;20810;-57
2022/11/10 03:12:25;;;;;;;47.43;31.33;;;8.30;99.90;;;8.26;69.28;95611.81;4999477;28;20967;-56
2022/11/10 03:14:54;;;;;;;59.60;32.50;;;8.30;99.90;;;8.25;69.40;95615.38;5002189;28;20528;-56
2022/11/10 03:17:21;;;;;;;52.93;32.70;;;8.30;99.90;;;8.25;69.35;95611.91;5000763;28;20901;-56
2022/11/10 03:19:49;;;;;;;61.77;32.17;;;8.30;99.90;;;8.23;69.82;95614.66;5001837;28;20493;-57
2022/11/10 03:22:17;;;;;;;58.60;31.87;;;8.30;99.90;;;8.24;69.35;95618.09;5002082;28;20453;-57
2022/11/10 03:24:44;;;;;;;56.60;31.97;;;8.20;99.90;;;8.22;69.84;95615.59;5006196;28;20478;-55
2022/11/10 03:27:11;;;;;;;57.67;33.70;;;8.20;99.90;;;8.21;69.68;95613.06;5006752;28;20461;-56
2022/11/10 03:29:39;;;;;;;54.13;32.57;;;8.20;99.90;;;8.19;69.50;95623.66;5006268;28;20477;-54
2022/11/10 03:32:07;;;;;;;62.33;33.00;;;8.20;99.90;;;8.19;69.71;95621.03;5006329;28;20511;-55
2022/11/10 03:34:34;;;;;;;60.97;33.03;;;8.20;99.90;;;8.19;69.41;95617.59;5006475;28;20473;-56
2022/11/10 03:37:02;;;;;;;64.83;35.37;;;8.20;99.90;;;8.19;70.31;95626.28;5006133;28;20561;-57
2022/11/10 03:39:29;;;;;;;63.97;36.17;;;8.20;99.90;;;8.20;70.43;95617.47;5002366;28;20497;-56
2022/11/10 03:41:56;;;;;;;73.23;37.50;;;8.20;99.90;;;8.20;69.93;95622.72;5006114;28;20453;-56
2022/11/10 03:44:24;;;;;;;78.17;37.20;;;8.20;99.90;;;8.22;69.88;95625.25;5006123;28;20872;-54
2022/11/10 03:46:51;;;;;;;61.93;35.33;;;8.20;99.90;;;8.22;70.40;95620.81;5006486;28;20890;-55
2022/11/10 03:49:19;;;;;;;66.00;34.30;;;8.20;99.90;;;8.21;70.11;95624.41;5006140;28;20500;-54
2022/11/10 03:51:47;;;;;;;61.97;35.07;;;8.20;99.90;;;8.20;70.62;95622.72;5006373;28;20458;-54
2022/11/10 03:54:14;;;;;;;61.87;36.20;;;8.20;99.90;;;8.19;70.06;95625.44;5005865;28;20639;-55
2022/11/10 03:56:41;;;;;;;81.60;37.77;;;8.20;99.90;;;8.18;70.23;95627.25;5005939;28;20998;-55
2022/11/10 03:59:09;;;;;;;64.13;35.00;;;8.20;99.90;;;8.18;70.83;95626.38;5005942;28;21015;-57
2022/11/10 04:01:36;;;;;;;74.50;36.83;;;8.20;99.90;;;8.18;70.63;95627.25;5005887;28;20818;-57
2022/11/10 04:04:03;;;;;;;68.50;34.87;;;8.20;99.90;;;8.18;70.19;95629.88;5006261;28;20850;-59
2022/11/10 04:09:16;;;;;;;63.93;38.27;;;8.20;99.90;;;8.18;70.55;95634.25;5005668;28;20504;-56
2022/11/10 04:17:27;;;;;;;66.33;34.20;;;8.20;99.90;;;8.23;70.68;95637.41;4936714;29;20455;-58
2022/11/10 04:19:54;;;;;;;66.50;33.47;;;8.20;99.90;;;8.22;70.87;95631.31;4971960;28;20575;-55
2022/11/10 04:25:05;;;;;;;52.93;31.10;;;8.20;99.90;;;8.21;71.10;95639.28;5005261;28;20626;-57
2022/11/10 04:27:32;;;;;;;59.10;32.70;;;8.20;99.90;;;8.21;70.86;95641.91;5005577;28;20477;-56
2022/11/10 04:30:00;;;;;;;60.80;31.53;;;8.20;99.90;;;8.20;70.90;95635.81;5005875;28;20528;-56
2022/11/10 04:32:27;;;;;;;52.93;28.27;;;8.20;99.90;;;8.21;71.23;95636.66;5006138;28;20476;-56
2022/11/10 04:34:55;;;;;;;60.27;30.07;;;8.20;99.90;;;8.20;71.31;95641.06;5008878;28;20500;-58
2022/11/10 04:37:23;;;;;;;55.50;30.00;;;8.20;99.90;;;8.22;71.33;95640.97;5009534;28;20552;-56
2022/11/10 04:39:51;;;;;;;57.57;29.63;;;8.20;99.90;;;8.23;71.61;95642.66;5009861;28;20579;-56
2022/11/10 04:42:18;;;;;;;45.67;27.23;;;8.20;99.90;;;8.26;71.86;95638.03;5005241;28;20450;-56
2022/11/10 04:44:45;;;;;;;59.70;30.63;;;8.30;99.90;;;8.26;71.84;95632.78;5003653;28;20469;-56
2022/11/10 04:47:13;;;;;;;52.20;27.83;;;8.30;99.90;;;8.28;72.13;95639.72;5004183;28;20468;-56
2022/11/10 04:49:40;;;;;;;53.33;30.23;;;8.30;99.90;;;8.30;71.81;95643.06;5001495;28;20574;-56
2022/11/10 04:52:07;;;;;;;49.07;27.83;;;8.30;99.90;;;8.32;72.04;95651.63;5005282;28;20511;-56
2022/11/10 04:54:36;;;;;;;60.13;31.70;;;8.30;99.90;;;8.31;71.70;95647.34;5005825;28;20898;-57
2022/11/10 04:57:03;;;;;;;53.37;29.30;;;8.30;99.90;;;8.33;71.87;95645.47;5005570;28;20462;-54
2022/11/10 04:59:31;;;;;;;57.13;29.47;;;8.30;99.90;;;8.33;71.88;95648.91;5000587;28;20494;-56
2022/11/10 05:01:58;;;;;;;49.00;29.90;;;8.30;99.90;;;8.33;71.41;95643.66;5007473;28;20523;-54
2022/11/10 05:04:25;;;;;;;45.23;28.13;;;8.30;99.90;;;8.35;71.53;95654.03;5001602;28;20537;-56
2022/11/10 05:06:53;;;;;;;52.93;29.40;;;8.30;99.90;;;8.35;71.89;95657.53;5002628;28;20888;-53
2022/11/10 05:09:20;;;;;;;60.23;30.20;;;8.40;99.90;;;8.36;71.48;95653.94;5001629;28;20843;-55
2022/11/10 05:11:49;;;;;;;70.80;30.23;;;8.40;99.90;;;8.37;71.44;95653.00;5007769;28;20484;-56
2022/11/10 05:14:16;;;;;;;63.40;31.00;;;8.40;99.90;;;8.40;71.25;95654.59;5007634;28;20480;-55
2022/11/10 05:16:44;;;;;;;62.30;30.50;;;8.40;99.90;;;8.41;71.81;95656.25;5001233;28;20460;-55
2022/11/10 05:19:11;;;;;;;57.43;30.80;;;8.40;99.90;;;8.44;71.62;95658.69;5005236;28;20555;-54
2022/11/10 05:21:39;;;;;;;58.13;29.13;;;8.40;99.90;;;8.46;71.85;95662.06;5009061;28;20468;-55
2022/11/10 05:24:06;;;;;;;55.80;30.83;;;8.40;99.90;;;8.48;71.74;95659.31;5001535;28;20994;-56
2022/11/10 05:26:34;;;;;;;51.47;29.10;;;8.50;99.90;;;8.49;72.19;95659.22;5003493;28;20504;-53
2022/11/10 05:29:02;;;;;;;53.87;30.83;;;8.50;99.90;;;8.50;72.25;95654.78;5002549;28;20474;-56
2022/11/10 05:31:30;;;;;;;45.00;28.00;;;8.50;99.90;;;8.52;72.10;95652.91;5004694;28;20974;-55
2022/11/10 05:33:57;;;;;;;68.30;31.00;;;8.50;99.90;;;8.55;72.08;95655.31;4996413;28;20556;-55
2022/11/10 05:36:24;;;;;;;55.10;27.57;;;8.60;99.90;;;8.57;71.91;95662.13;5003120;28;20457;-56
2022/11/10 05:38:52;;;;;;;48.03;27.70;;;8.60;99.90;;;8.62;71.73;95656.56;5006425;28;20503;-55
2022/11/10 05:41:19;;;;;;;48.50;26.90;;;8.60;99.90;;;8.67;72.05;95658.84;5003528;28;20517;-57
2022/11/10 05:43:46;;;;;;;55.97;26.07;;;8.70;99.90;;;8.71;71.51;95658.53;5004642;28;20476;-55
2022/11/10 05:46:15;;;;;;;56.03;28.40;;;8.70;99.90;;;8.79;71.43;95671.09;5004836;28;20862;-55
2022/11/10 05:48:42;;;;;;;60.00;30.07;;;8.70;99.90;;;8.86;71.18;95672.34;5003678;28;20942;-55
2022/11/10 05:51:10;;;;;;;56.00;29.43;;;8.80;99.90;;;8.96;70.78;95667.28;5000711;28;20451;-55
2022/11/10 05:53:37;;;;;;;57.73;28.83;;;8.90;99.90;;;9.06;70.60;95672.69;5004178;28;20465;-57
2022/11/10 05:56:05;;;;;;;59.93;27.77;;;9.00;99.90;;;9.14;70.29;95676.44;5002335;28;20462;-54
2022/11/10 05:58:35;;;;;;;67.70;28.83;;;9.10;99.90;;;9.21;69.80;95674.19;5003612;28;20521;-56
2022/11/10 06:01:02;;;;;;;58.57;29.80;;;9.20;99.90;;;9.26;69.63;95689.63;5000275;28;20927;-56
2022/11/10 06:03:31;;;;;;;53.97;27.77;;;9.20;99.90;;;9.27;69.57;95689.50;5004450;28;20461;-56
2022/11/10 06:05:58;;;;;;;66.00;29.50;;;9.20;99.90;;;9.30;69.49;95705.03;4999371;28;20502;-59
2022/11/10 06:08:25;;;;;;;55.50;28.90;;;9.30;99.90;;;9.33;69.39;95699.56;5006166;28;20532;-56
2022/11/10 06:10:53;;;;;;;51.07;27.80;;;9.30;99.90;;;9.37;69.45;95707.22;5001597;28;21007;-56
2022/11/10 06:13:20;;;;;;;56.43;29.37;;;9.30;99.90;;;9.38;69.20;95709.72;5003904;28;20458;-55
2022/11/10 06:15:48;;;;;;;58.07;30.30;;;9.30;99.90;;;9.41;69.35;95711.31;5007447;28;20504;-56
2022/11/10 06:18:15;;;;;;;71.70;35.20;;;9.40;99.90;;;9.45;68.88;95712.72;4997670;28;20465;-56
2022/11/10 06:20:44;;;;;;;76.17;35.43;;;9.40;99.90;;;9.49;68.96;95714.19;5003840;28;20501;-57
2022/11/10 06:23:11;;;;;;;59.03;32.03;;;9.40;99.90;;;9.52;68.63;95720.06;4999727;28;21060;-57
2022/11/10 06:26:21;;;;;;;68.40;34.73;;;9.50;99.90;;;9.58;68.89;95718.78;5008620;28;20481;-54
2022/11/10 06:28:48;;;;;;;73.23;34.77;;;9.50;99.90;;;9.69;68.81;95720.63;5004640;28;21136;-55
2022/11/10 06:31:16;;;;;;;65.43;37.23;;;9.60;99.90;;;9.84;68.60;95729.16;5005377;28;20945;-57
2022/11/10 06:33:43;;;;;;;74.53;36.70;;;9.80;99.90;;;10.10;68.28;95726.34;4997414;28;20465;-57
2022/11/10 06:36:12;;;;;;;67.10;36.87;;;10.00;99.90;;;10.40;67.76;95737.22;5002091;28;20603;-57
2022/11/10 06:38:39;;;;;;;75.33;37.90;;;10.30;99.90;;;10.81;67.28;95734.13;4999103;28;20449;-57
2022/11/10 06:41:06;;;;;;;81.50;38.43;;;10.60;99.90;;;11.21;66.51;95737.06;5003363;28;20463;-58
2022/11/10 06:43:34;;;;;;;69.80;38.17;;;11.10;99.90;;;11.68;65.46;95736.88;5005394;28;20453;-56
2022/11/10 06:46:01;;;;;;;71.90;39.80;;;11.50;99.90;;;12.17;64.75;95743.38;5003092;28;20458;-56
2022/11/10 06:48:29;;;;;;;85.07;38.53;;;12.00;99.90;;;12.70;63.88;95738.97;5008113;28;20454;-57
2022/11/10 06:50:56;;;;;;;88.83;43.47;;;12.50;99.90;;;13.20;63.11;95744.31;5007201;28;20473;-55
2022/11/10 06:53:25;;;;;;;86.20;43.27;;;13.10;99.30;;;13.71;61.70;95744.31;5008083;28;20461;-56
2022/11/10 06:55:52;;;;;;;75.93;42.33;;;13.50;98.40;;;14.19;60.38;95747.94;5003037;28;20484;-56
2022/11/10 06:58:19;;;;;;;70.07;39.03;;;14.00;97.40;;;14.65;59.58;95746.38;5005691;28;20457;-55
2022/11/10 07:00:46;;;;;;;82.10;38.23;;;14.40;96.60;;;15.03;58.68;95745.41;5005135;28;20612;-55
2022/11/10 07:03:14;;;;;;;82.10;38.43;;;14.80;96.00;;;15.41;57.69;95745.34;5011738;28;20461;-57
2022/11/10 07:05:42;;;;;;;67.90;36.23;;;15.20;95.30;;;15.77;56.90;95738.34;5004458;28;20477;-55
2022/11/10 07:08:12;;;;;;;73.73;36.60;;;15.50;94.40;;;16.15;56.28;95740.81;5004277;28;20884;-56
2022/11/10 07:10:41;;;;;;;68.63;38.53;;;15.90;94.10;;;16.53;55.06;95740.63;5007569;28;20482;-55
2022/11/10 07:13:10;;;;;;;63.83;36.40;;;16.20;92.80;;;16.88;54.73;95739.72;5002403;28;20501;-54
2022/11/10 07:15:37;;;;;;;66.77;34.23;;;16.60;92.40;;;17.20;53.82;95744.38;5006579;28;20540;-57
2022/11/10 07:18:04;;;;;;;67.57;35.13;;;16.90;91.70;;;17.53;53.18;95755.13;5005070;28;20469;-55
2022/11/10 07:20:32;;;;;;;71.37;36.20;;;17.30;90.90;;;17.86;52.11;95751.72;5005023;28;20497;-58
2022/11/10 07:23:00;;;;;;;65.13;36.53;;;17.60;89.90;;;18.15;51.75;95753.16;5009528;28;20461;-55
2022/11/10 07:25:27;;;;;;;74.30;38.80;;;17.90;88.80;;;18.40;50.85;95759.31;4999400;28;21046;-55
2022/11/10 07:27:56;;;;;;;64.53;38.93;;;18.20;87.20;;;18.63;50.90;95749.63;5001065;28;20469;-57
2022/11/10 07:30:24;;;;;;;71.70;37.70;;;18.40;84.90;;;18.84;49.68;95753.63;5001043;28;20471;-57
2022/11/10 07:32:59;;;;;;;73.80;38.23;;;18.70;84.70;;;19.06;49.30;95751.28;4999947;28;20457;-59
2022/11/10 07:35:27;;;;;;;74.97;38.07;;;18.90;82.20;;;19.25;49.11;95758.88;5003103;28;20473;-56
2022/11/10 07:37:55;;;;;;;63.93;35.77;;;19.00;81.90;;;19.47;48.61;95765.31;5005194;28;20519;-59
2022/11/10 07:40:22;;;;;;;62.03;37.87;;;19.20;79.90;;;19.71;47.95;95760.84;5001098;28;20618;-56
2022/11/10 07:42:49;;;;;;;76.77;36.33;;;19.40;79.20;;;19.93;47.47;95753.91;5007672;28;20458;-55
2022/11/10 07:45:18;;;;;;;60.53;38.27;;;19.60;78.00;;;20.16;47.22;95753.13;5005214;28;20532;-58
2022/11/10 07:47:46;;;;;;;65.00;36.10;;;19.90;77.50;;;20.40;46.71;95749.41;5004373;28;20462;-57
2022/11/10 07:50:13;;;;;;;63.70;37.37;;;20.10;76.00;;;20.65;46.35;95747.41;5006835;28;21047;-58
2022/11/10 07:52:40;;;;;;;75.20;40.47;;;20.30;75.00;;;20.86;45.85;95748.56;5006898;28;20461;-57
2022/11/10 07:55:08;;;;;;;68.87;38.33;;;20.50;73.20;;;21.06;45.41;95755.03;5004271;28;20474;-57
2022/11/10 07:57:35;;;;;;;64.60;39.13;;;20.70;72.40;;;21.27;44.73;95758.81;5002796;28;20450;-56
2022/11/10 08:00:03;;;;;;;81.53;42.57;;;20.90;71.10;;;21.41;44.58;95758.00;5000429;28;20497;-58
2022/11/10 08:02:32;;;;;;;84.17;43.60;;;21.10;70.30;;;21.58;44.44;95752.44;5000647;28;20461;-58
2022/11/10 08:04:59;;;;;;;71.90;39.73;;;21.30;69.50;;;21.74;43.97;95754.94;5004962;28;21059;-58
2022/11/10 08:07:27;;;;;;;65.17;39.60;;;21.40;68.30;;;21.91;43.68;95758.22;5001411;28;20461;-55
2022/11/10 08:09:54;;;;;;;73.43;39.90;;;21.60;68.30;;;22.07;43.63;95746.44;4997697;28;20498;-56
2022/11/10 08:12:21;;;;;;;68.73;42.40;;;21.70;67.00;;;22.24;43.25;95746.19;5004561;28;20450;-59
2022/11/10 08:14:49;;;;;;;75.53;40.13;;;21.90;66.10;;;22.41;42.62;95746.78;5005606;28;20477;-55
2022/11/10 08:17:16;;;;;;;69.03;39.80;;;22.10;65.80;;;22.60;42.61;95748.00;5002219;28;20460;-56
2022/11/10 08:19:45;;;;;;;55.40;36.73;;;22.20;65.50;;;22.84;42.77;95752.13;5003562;28;21024;-58
2022/11/10 08:22:12;;;;;;;59.10;36.97;;;22.40;65.00;;;23.02;42.18;95756.97;5006425;28;20935;-58
2022/11/10 08:24:39;;;;;;;58.70;38.40;;;22.60;64.10;;;23.16;42.42;95761.47;5009079;28;20470;-57
2022/11/10 08:27:07;;;;;;;71.80;40.00;;;22.80;63.80;;;23.33;41.60;95758.44;5007681;28;20458;-57
2022/11/10 08:29:34;;;;;;;56.20;39.97;;;22.90;63.00;;;23.45;41.63;95759.53;5009538;28;20478;-58
2022/11/10 08:32:02;;;;;;;69.40;39.90;;;23.10;62.20;;;23.57;41.42;95757.13;5006387;28;20500;-57
2022/11/10 08:34:29;;;;;;;58.67;38.20;;;23.20;61.30;;;23.69;41.45;95757.41;5003262;28;20480;-56
2022/11/10 08:36:58;;;;;;;68.70;38.50;;;23.30;61.20;;;23.84;41.05;95752.72;5003683;28;20485;-56
2022/11/10 08:39:26;;;;;;;55.60;35.70;;;23.50;60.80;;;24.04;40.78;95760.03;5004381;28;20494;-59
2022/11/10 08:41:53;;;;;;;70.53;38.37;;;23.60;60.00;;;24.25;40.56;95761.75;5007153;28;20452;-57
2022/11/10 08:44:21;;;;;;;55.30;37.63;;;23.80;59.80;;;24.37;39.43;95754.75;5001991;28;21085;-55
2022/11/10 08:46:49;;;;;;;63.50;37.17;;;24.00;59.20;;;24.50;39.30;95756.59;4999069;28;20458;-54
2022/11/10 08:49:16;;;;;;;52.77;34.37;;;24.10;59.30;;;24.69;39.18;95755.84;5000063;28;20478;-53
2022/11/10 08:51:44;;;;;;;57.50;37.47;;;24.30;58.30;;;24.87;39.19;95759.75;5002366;28;20446;-58
2022/11/10 08:54:13;;;;;;;52.03;34.30;;;24.40;58.10;;;25.10;39.10;95762.03;5000665;28;20542;-55
2022/11/10 08:56:40;;;;;;;59.23;38.67;;;24.60;57.50;;;25.33;38.47;95758.06;4998881;28;20552;-58
2022/11/10 08:59:08;;;;;;;56.87;36.90;;;24.90;57.00;;;25.50;37.87;95761.13;4999400;28;21028;-58
2022/11/10 09:01:35;;;;;;;57.07;36.67;;;25.00;56.20;;;25.57;37.62;95751.16;5002067;28;20453;-56
2022/11/10 09:04:03;;;;;;;65.23;35.87;;;25.10;55.80;;;25.58;37.65;95761.72;5001120;28;20934;-56
2022/11/10 09:06:30;;;;;;;55.60;35.80;;;25.10;55.50;;;25.58;37.55;95758.22;5001113;28;20549;-57
2022/11/10 09:08:57;;;;;;;62.63;38.70;;;25.20;55.10;;;25.65;37.35;95769.78;5000239;28;21024;-59
2022/11/10 09:11:26;;;;;;;65.57;36.13;;;25.20;55.00;;;25.68;37.68;95763.97;5001793;28;20461;-56
2022/11/10 09:13:54;;;;;;;55.90;36.40;;;25.20;54.60;;;25.53;37.42;95764.25;4997815;28;20482;-55
2022/11/10 09:16:21;;;;;;;56.53;35.47;;;25.10;54.30;;;25.19;37.35;95759.91;5001289;28;20445;-57
2022/11/10 09:18:48;;;;;;;68.13;37.83;;;24.90;54.00;;;24.90;37.82;95761.22;4996227;28;20450;-58
2022/11/10 09:21:16;;;;;;;58.27;35.50;;;24.70;54.40;;;24.70;37.90;95756.66;5008497;28;21042;-57
2022/11/10 09:23:43;;;;;;;76.70;35.97;;;24.50;54.10;;;24.39;38.41;95754.53;5001632;28;20493;-57
2022/11/10 09:26:11;;;;;;;56.50;35.37;;;24.20;54.80;;;24.05;39.13;95764.38;5005469;28;20449;-55
2022/11/10 09:28:39;;;;;;;58.10;36.67;;;23.90;54.90;;;23.79;39.12;95757.84;5002936;28;20938;-53
2022/11/10 09:31:07;;;;;;;63.87;35.23;;;23.70;55.30;;;23.81;38.82;95750.41;5007948;28;20457;-58
2022/11/10 09:33:34;;;;;;;48.27;33.53;;;23.60;55.70;;;23.96;38.72;95755.66;5000258;28;20773;-56
2022/11/10 09:36:01;;;;;;;51.17;31.80;;;23.60;55.90;;;24.02;38.22;95754.03;5005331;28;20962;-55
2022/11/10 09:38:29;;;;;;;49.03;33.30;;;23.60;55.20;;;23.85;38.83;95757.06;5004211;28;20492;-55
2022/11/10 09:41:01;;;;;;;63.33;33.03;;;23.50;55.30;;;23.44;39.20;95749.84;5006289;28;20497;-56
2022/11/10 09:43:33;;;;;;;44.00;31.47;;;23.20;54.80;;;22.97;40.05;95746.00;5003613;28;20449;-56
2022/11/10 09:46:06;;;;;;;53.27;32.43;;;22.80;55.60;;;22.60;39.93;95745.31;5005716;28;20441;-57
2022/11/10 09:48:35;;;;;;;52.00;29.73;;;22.50;56.40;;;22.26;40.46;95749.50;5006007;28;20541;-58
2022/11/10 09:51:05;;;;;;;49.27;30.77;;;22.10;56.60;;;21.93;41.18;95750.81;5004337;28;20450;-54
2022/11/10 09:53:37;;;;;;;49.93;32.30;;;21.80;57.10;;;21.66;41.34;95747.00;5005218;28;20739;-58
2022/11/10 09:56:05;;;;;;;50.57;32.07;;;21.50;57.60;;;21.50;41.88;95756.06;5006076;28;20500;-56
2022/11/10 09:58:37;;;;;;;49.33;29.20;;;21.40;58.30;;;21.69;42.02;95743.97;5007230;28;20457;-56
2022/11/10 10:01:17;;;;;;;46.70;30.20;;;21.40;58.70;;;22.13;41.74;95737.63;5003457;28;20477;-55
2022/11/10 10:03:47;;;;;;;46.87;29.80;;;21.70;58.80;;;22.76;40.89;95733.47;5004710;28;20545;-58
2022/11/10 10:06:16;;;;;;;53.77;31.80;;;22.20;58.20;;;23.35;40.66;95732.25;5007794;28;20937;-58
2022/11/10 10:08:54;;;;;;;50.00;31.07;;;22.70;57.90;;;23.96;39.57;95734.16;5007990;28;20454;-57
2022/11/10 10:11:38;;;;;;;44.13;26.80;;;23.30;57.30;;;24.55;38.30;95742.53;5001805;28;20989;-57
2022/11/10 10:14:24;;;;;;;42.40;29.70;;;23.90;56.20;;;25.05;38.17;95733.03;4999853;28;20911;-56
2022/11/10 10:16:59;;;;;;;44.97;28.93;;;24.50;55.70;;;25.55;37.33;95740.59;4995874;28;20456;-56
2022/11/10 10:19:31;;;;;;;43.77;27.40;;;24.90;54.80;;;25.82;36.79;95736.97;5002780;28;20552;-56
2022/11/10 10:22:28;;;;;;;50.33;27.23;;;25.30;53.80;;;25.96;35.73;95735.88;5006356;28;20465;-58
2022/11/10 10:24:58;;;;;;;43.17;26.97;;;25.50;52.60;;;25.80;36.32;95739.91;5003232;28;20504;-58
2022/11/10 10:27:26;;;;;;;39.90;27.30;;;25.40;52.60;;;25.56;36.38;95734.19;5006601;28;20476;-58
2022/11/10 10:29:53;;;;;;;42.70;27.87;;;25.30;52.50;;;25.27;36.05;95724.72;5004879;28;20465;-62
2022/11/10 10:32:22;;;;;;;39.80;26.40;;;25.10;51.80;;;25.18;37.01;95731.34;5007080;28;20453;-55
2022/11/10 10:34:50;;;;;;;39.50;29.23;;;25.00;52.90;;;25.32;36.99;95727.63;5003668;28;20473;-57